Latest Weather Observations for Melbourne (Olympic Park)

IDV60901

Issued at 7:55 pm EST Friday 22 August 2014 (issued every 10 minutes, with the page automatically refreshed every 10 minutes)

About weather observations | Map of Melbourne area stations | Latest observations for Melbourne area | Other Formats
Station Details ID: 086338 Name: MELBOURNE (OLYMPIC PARK) Lat: -37.83 Lon: 144.98 Height: 7.53 m
Data from the previous 72 hours. | See also: Recent months at Melbourne (Olympic Park)
Date/Time
EST
Tmp

°C
App
Tmp
°C
Dew
Point
°C
Rel
Hum
%
Delta-T

°C
Wind Press
QNH
hPa
Press
MSL
hPa
Rain
since
9 am
mm
Dir
 
Spd
km/h
Gust
km/h
Spd
kts
Gust
kts
22/07:30pm 13.7 12.9 6.6 62 3.4 CALM 0 0 0 0 1028.4 1028.4 0.0
22/07:00pm 14.6 12.6 6.2 57 4.0 ESE 6 11 3 6 1028.2 1028.2 0.0
22/06:30pm 14.1 13.1 5.5 56 4.1 CALM 0 0 0 0 1027.9 1027.9 0.0
22/06:00pm 15.8 14.7 5.1 49 5.0 CALM 0 6 0 3 1027.7 1027.7 0.0
22/05:30pm 17.5 15.1 4.1 41 6.3 N 6 11 3 6 1027.6 1027.6 0.0
22/05:00pm 18.5 16.1 4.3 39 6.7 NNW 6 13 3 7 1027.6 1027.6 0.0
22/04:30pm 18.7 15.1 2.9 35 7.3 NNE 11 19 6 10 1027.4 1027.4 0.0
22/04:00pm 19.1 15.6 3.3 35 7.4 NNE 11 15 6 8 1027.3 1027.3 0.0
22/03:30pm 19.7 16.0 4.2 36 7.4 N 13 19 7 10 1027.5 1027.5 0.0
22/03:00pm 19.6 16.6 4.1 36 7.4 NNE 9 15 5 8 1027.7 1027.7 0.0
22/02:30pm 19.1 15.2 3.3 35 7.4 NW 13 20 7 11 1027.9 1027.9 0.0
22/02:00pm 19.2 16.7 4.6 38 7.0 N 7 20 4 11 1028.2 1028.2 0.0
22/01:30pm 19.3 16.8 5.0 39 6.9 NW 7 19 4 10 1028.5 1028.5 0.0
22/01:00pm 19.2 15.4 6.0 42 6.5 NNE 15 22 8 12 1028.9 1028.9 0.0
22/12:30pm 18.6 15.2 6.1 44 6.2 N 13 20 7 11 1029.4 1029.4 0.0
22/12:00pm 18.0 14.0 6.8 48 5.5 NNW 17 22 9 12 1029.9 1029.9 0.0
22/11:30am 18.3 15.2 7.4 49 5.5 N 13 20 7 11 1030.4 1030.4 0.0
22/11:00am 17.5 15.7 7.8 53 4.9 NNE 7 13 4 7 1030.7 1030.7 0.0
22/10:30am 15.2 13.2 7.2 59 3.9 NNE 7 11 4 6 1031.0 1031.0 0.0
22/10:00am 13.6 11.3 7.4 66 3.0 NE 9 13 5 7 1031.2 1031.2 0.0
22/09:30am 12.2 9.8 7.1 71 2.5 NE 9 15 5 8 1031.3 1031.3 0.0
22/09:00am 10.8 8.3 6.6 75 2.0 NE 9 15 5 8 1031.4 1031.4 0.0
22/08:30am 9.3 6.7 5.9 79 1.6 NE 9 17 5 9 1031.4 1031.4 0.0
22/08:00am 8.2 5.5 5.5 83 1.2 NE 9 15 5 8 1031.3 1031.3 0.0
22/07:30am 8.4 5.7 5.7 83 1.2 NE 9 17 5 9 1031.0 1031.0 0.0
22/07:00am 7.9 5.6 5.7 86 1.0 NNE 7 11 4 6 1030.6 1030.6 0.0
22/06:30am 7.2 4.5 5.5 89 0.8 N 9 9 5 5 1030.4 1030.4 0.0
22/06:00am 7.2 5.0 5.5 89 0.7 NNE 6 13 3 7 1030.2 1030.2 0.0
22/05:30am 7.6 4.9 5.7 88 0.9 NNE 9 11 5 6 1030.1 1030.1 0.0
22/05:00am 8.1 5.5 6.1 87 0.9 NE 9 13 5 7 1029.9 1029.9 0.0
22/04:30am 8.2 5.6 6.2 87 0.9 NE 9 15 5 8 1029.7 1029.7 0.0
22/04:00am 8.2 5.6 6.2 87 0.9 NNE 9 11 5 6 1029.5 1029.5 0.0
22/03:30am 8.5 6.3 6.3 86 1.0 NNE 7 11 4 6 1029.5 1029.5 0.0
22/03:00am 8.7 6.8 6.5 86 1.0 NE 6 11 3 6 1029.4 1029.4 0.0
22/02:30am 8.6 6.1 6.6 87 0.9 NNE 9 11 5 6 1029.7 1029.7 0.0
22/02:00am 8.8 6.4 6.8 87 0.9 NNE 9 15 5 8 1029.6 1029.6 0.0
22/01:30am 9.0 6.9 6.8 86 1.0 NNE 7 13 4 7 1029.7 1029.7 0.0
22/01:00am 9.3 7.3 7.1 86 1.0 NNE 7 13 4 7 1029.6 1029.6 0.0
22/12:30am 9.5 7.5 7.3 86 1.0 NNE 7 13 4 7 1029.6 1029.6 0.0
22/12:00am 9.8 7.8 7.2 84 1.2 N 7 11 4 6 1029.6 1029.6 0.0
 
Date/Time
EST
Tmp

°C
App
Tmp
°C
Dew
Point
°C
Rel
Hum
%
Delta-T

°C
Wind Press
QNH
hPa
Press
MSL
hPa
Rain
since
9 am
mm
Dir
 
Spd
km/h
Gust
km/h
Spd
kts
Gust
kts
21/11:30pm 10.0 8.6 7.3 83 1.3 N 4 7 2 4 1029.6 1029.6 0.0
21/11:00pm 10.7 9.1 7.8 82 1.4 NE 6 11 3 6 1029.6 1029.6 0.0
21/10:30pm 9.4 8.8 7.5 88 0.9 CALM 0 6 0 3 1029.5 1029.5 0.0
21/10:00pm 9.6 9.0 7.4 86 1.0 CALM 0 0 0 0 1029.5 1029.5 0.0
21/09:30pm 10.2 9.6 7.6 84 1.2 CALM 0 0 0 0 1029.4 1029.4 0.0
21/09:00pm 12.6 10.7 7.7 72 2.4 NNE 7 11 4 6 1029.2 1029.2 0.0
21/08:30pm 12.6 11.0 8.1 74 2.2 NNE 6 9 3 5 1028.9 1028.9 0.0
21/08:00pm 13.0 11.9 7.0 67 2.9 N 2 7 1 4 1028.7 1028.7 0.0
21/07:30pm 14.1 12.3 7.2 63 3.4 N 6 11 3 6 1028.5 1028.5 0.0
21/07:00pm 15.0 13.0 7.1 59 3.9 N 7 11 4 6 1028.2 1028.2 0.0
21/06:30pm 15.1 13.2 6.7 57 4.1 N 6 11 3 6 1028.0 1028.0 0.0
21/06:00pm 16.2 13.6 6.3 52 4.8 NNE 9 17 5 9 1027.8 1027.8 0.0
21/05:30pm 16.2 13.6 6.1 51 4.9 N 9 15 5 8 1027.4 1027.4 0.0
21/05:00pm 16.7 12.9 5.6 48 5.3 N 15 22 8 12 1027.0 1027.0 0.0
21/04:30pm 17.1 14.7 6.9 51 5.1 N 9 15 5 8 1026.8 1026.8 0.0
21/04:00pm 16.7 14.4 7.4 54 4.6 NNW 9 20 5 11 1026.8 1026.8 0.0
21/03:30pm 15.1 13.8 9.2 68 3.0 SSW 6 11 3 6 1026.9 1026.9 0.0
21/03:00pm 15.2 13.9 9.1 67 3.1 SSW 6 9 3 5 1027.0 1027.0 0.0
21/02:30pm 15.7 14.3 9.4 66 3.3 S 7 13 4 7 1026.9 1026.9 0.0
21/02:00pm 14.4 12.4 8.8 69 2.8 SSW 9 15 5 8 1027.0 1027.0 0.0
21/01:30pm 13.8 12.1 8.4 70 2.7 SW 7 11 4 6 1027.1 1027.1 0.0
21/01:00pm 15.6 13.9 7.6 59 4.0 ENE 6 11 3 6 1027.5 1027.5 0.0
21/12:30pm 14.9 12.2 7.5 61 3.7 N 11 17 6 9 1028.0 1028.0 0.0
21/12:00pm 15.0 13.4 8.0 63 3.5 ENE 6 11 3 6 1028.5 1028.5 0.0
21/11:30am 14.2 13.0 8.2 67 3.0 ESE 4 9 2 5 1029.0 1029.0 0.0
21/11:00am 12.9 11.6 7.6 70 2.6 E 4 7 2 4 1029.2 1029.2 0.0
21/10:30am 11.9 10.0 7.4 74 2.2 N 7 15 4 8 1029.5 1029.5 0.0
21/10:00am 12.3 11.5 8.2 76 2.0 NNE 2 9 1 5 1029.5 1029.5 0.0
21/09:30am 10.7 9.0 7.6 81 1.5 NNE 6 11 3 6 1029.6 1029.6 0.0
21/09:00am 9.4 7.3 6.8 84 1.2 NE 7 11 4 6 1029.6 1029.6 0.0
21/08:30am 8.7 5.8 6.7 87 0.9 NNE 11 13 6 7 1029.4 1029.4 0.0
21/08:00am 8.2 5.7 6.7 90 0.7 NE 9 11 5 6 1029.1 1029.1 0.0
21/07:30am 8.1 6.2 6.9 92 0.6 N 6 13 3 7 1028.8 1028.8 0.0
21/07:00am 8.2 7.5 7.0 92 0.6 CALM 0 7 0 4 1028.2 1028.2 0.0
21/06:30am 8.7 8.1 7.2 90 0.7 CALM 0 6 0 3 1028.3 1028.3 0.0
21/06:00am 8.6 7.8 6.7 88 0.9 CALM 0 0 0 0 1028.1 1028.1 0.0
21/05:30am 8.6 7.9 6.9 89 0.8 CALM 0 7 0 4 1027.9 1027.9 0.0
21/05:00am 8.4 7.7 7.0 91 0.6 CALM 0 0 0 0 1027.9 1027.9 0.0
21/04:30am 7.8 6.7 6.9 94 0.4 S 2 7 1 4 1027.8 1027.8 0.0
21/04:00am 7.6 6.7 6.1 90 0.7 CALM 0 0 0 0 1027.9 1027.9 0.0
21/03:30am 8.1 7.2 5.9 86 1.0 CALM 0 0 0 0 1027.6 1027.6 0.0
21/03:00am 9.1 8.3 6.4 83 1.2 CALM 0 0 0 0 1027.6 1027.6 0.0
21/02:30am 9.8 8.6 6.5 80 1.5 S 2 7 1 4 1027.7 1027.7 0.0
21/02:00am 9.9 9.1 6.4 79 1.6 CALM 0 0 0 0 1027.7 1027.7 0.0
21/01:30am 10.1 8.9 6.3 77 1.8 S 2 6 1 3 1027.6 1027.6 0.0
21/01:00am 10.2 8.2 6.2 76 1.8 S 6 9 3 5 1027.7 1027.7 0.0
21/12:30am 10.4 7.8 6.0 74 2.0 SSE 9 13 5 7 1027.8 1027.8 0.0
21/12:00am 10.3 8.1 6.3 76 1.8 S 7 13 4 7 1027.8 1027.8 0.0
 
Date/Time
EST
Tmp

°C
App
Tmp
°C
Dew
Point
°C
Rel
Hum
%
Delta-T

°C
Wind Press
QNH
hPa
Press
MSL
hPa
Rain
since
9 am
mm
Dir
 
Spd
km/h
Gust
km/h
Spd
kts
Gust
kts
20/11:30pm 10.5 7.9 6.1 74 2.0 SSE 9 13 5 7 1027.9 1027.9 0.0
20/11:00pm 10.5 8.3 6.1 74 2.0 S 7 11 4 6 1028.0 1028.0 0.0
20/10:30pm 10.6 8.0 6.2 74 2.0 SSE 9 15 5 8 1028.2 1028.2 0.0
20/10:00pm 10.8 8.2 6.0 72 2.2 SSE 9 15 5 8 1028.4 1028.4 0.0
20/09:30pm 10.9 8.6 5.9 71 2.3 S 7 13 4 7 1028.4 1028.4 0.0
20/09:00pm 11.1 8.4 5.8 70 2.4 S 9 15 5 8 1028.3 1028.3 0.0
20/08:30pm 11.2 8.3 6.3 72 2.3 S 11 17 6 9 1028.1 1028.1 0.0
20/08:00pm 11.3 8.5 7.0 75 2.0 S 11 17 6 9 1028.1 1028.1 0.0
20/07:30pm 11.4 8.9 6.5 72 2.3 S 9 15 5 8 1028.1 1028.1 0.0
20/07:00pm 11.4 9.2 6.3 71 2.4 SSW 7 13 4 7 1028.0 1028.0 0.0
20/06:30pm 11.5 9.4 6.0 69 2.6 S 6 13 3 7 1027.8 1027.8 0.0
20/06:00pm 11.6 8.9 5.7 67 2.7 S 9 15 5 8 1027.5 1027.5 0.0
20/05:30pm 11.7 8.9 5.3 65 2.9 S 9 15 5 8 1027.2 1027.2 0.0
20/05:00pm 11.8 9.4 5.2 64 3.0 S 7 15 4 8 1027.0 1027.0 0.0
20/04:30pm 11.9 8.8 5.5 65 3.0 S 11 20 6 11 1026.8 1026.8 0.0
20/04:00pm 12.1 9.0 5.5 64 3.0 SSW 11 19 6 10 1026.7 1026.7 0.0
20/03:30pm 12.0 9.6 6.9 71 2.4 SSW 9 13 5 7 1026.5 1026.5 0.0
20/03:00pm 11.9 8.6 6.6 70 2.5 SSW 13 19 7 10 1026.4 1026.4 0.0
20/02:30pm 11.8 8.4 6.1 68 2.7 SSW 13 19 7 10 1026.4 1026.4 0.0
20/02:00pm 12.0 8.7 6.3 68 2.7 SSW 13 20 7 11 1026.3 1026.3 0.0
20/01:30pm 12.5 9.4 5.7 63 3.2 SSW 11 17 6 9 1026.3 1026.3 0.0
20/01:00pm 12.4 8.9 3.6 55 3.9 S 11 17 6 9 1026.5 1026.5 0.0
20/12:30pm 12.3 9.5 5.0 61 3.4 SSW 9 17 5 9 1026.8 1026.8 0.0
20/12:00pm 12.1 9.8 5.5 64 3.0 S 7 13 4 7 1027.1 1027.1 0.0
20/11:30am 11.6 9.6 6.1 69 2.6 SSW 6 9 3 5 1027.4 1027.4 0.0
20/11:00am 11.5 8.8 5.8 68 2.6 SSW 9 17 5 9 1027.4 1027.4 0.0
20/10:30am 12.0 9.4 5.9 66 2.9 SSE 9 19 5 10 1027.5 1027.5 0.0
20/10:00am 12.0 9.0 6.1 67 2.8 ESE 11 15 6 8 1027.4 1027.4 0.0
20/09:30am 11.6 8.8 5.0 64 3.0 SE 9 13 5 7 1027.3 1027.3 0.0
20/09:00am 11.2 8.6 4.0 61 3.2 SE 7 15 4 8 1027.1 1027.1 0.0
20/08:30am 11.0 9.7 4.0 62 3.1 CALM 0 6 0 3 1027.0 1027.0 0.0
20/08:00am 10.3 9.0 4.2 66 2.7 CALM 0 0 0 0 1026.7 1026.7 0.0
20/07:30am 10.0 8.7 4.2 67 2.6 CALM 0 0 0 0 1026.4 1026.4 0.0
20/07:00am 9.7 8.4 4.1 68 2.5 CALM 0 0 0 0 1026.0 1026.0 0.0
20/06:30am 10.0 8.6 3.7 65 2.8 CALM 0 0 0 0 1025.8 1025.8 0.0
20/06:00am 10.0 8.5 3.1 62 3.0 CALM 0 0 0 0 1025.7 1025.7 0.0
20/05:30am 10.2 8.0 3.3 62 3.0 E 4 9 2 5 1025.5 1025.5 0.0
20/05:00am 10.3 8.1 3.1 61 3.1 ESE 4 11 2 6 1025.4 1025.4 0.0
20/04:30am 10.3 7.7 3.3 62 3.0 SSE 6 11 3 6 1025.5 1025.5 0.0
20/04:00am 10.3 7.7 3.3 62 3.0 SSE 6 11 3 6 1025.5 1025.5 0.0
20/03:30am 10.4 7.6 3.4 62 3.1 SSE 7 11 4 6 1025.5 1025.5 0.0
20/03:00am 10.5 7.9 3.3 61 3.1 SSE 6 11 3 6 1025.4 1025.4 0.0
20/02:30am 10.5 7.9 4.0 64 2.9 SE 7 11 4 6 1025.5 1025.5 0.0
20/02:00am 10.5 7.9 4.0 64 2.9 SSE 7 13 4 7 1025.7 1025.7 0.0
20/01:30am 10.5 8.0 4.0 64 2.9 SSE 6 9 3 5 1025.9 1025.9 0.0
20/01:00am 10.5 8.0 4.0 64 2.9 SE 6 9 3 5 1025.8 1025.8 0.0
20/12:30am 10.5 8.1 4.4 66 2.7 SSE 6 11 3 6 1025.8 1025.8 0.0
20/12:00am 10.6 7.9 3.9 63 2.9 SE 7 9 4 5 1025.8 1025.8 0.0
 
Date/Time
EST
Tmp

°C
App
Tmp
°C
Dew
Point
°C
Rel
Hum
%
Delta-T

°C
Wind Press
QNH
hPa
Press
MSL
hPa
Rain
since
9 am
mm
Dir
 
Spd
km/h
Gust
km/h
Spd
kts
Gust
kts
19/11:30pm 10.7 8.1 4.0 63 3.0 SE 7 11 4 6 1025.9 1025.9 0.0
19/11:00pm 10.8 8.2 4.0 63 3.0 SE 7 13 4 7 1025.9 1025.9 0.0
19/10:30pm 10.8 8.3 4.0 63 3.0 SSE 6 9 3 5 1025.9 1025.9 0.0
19/10:00pm 10.9 7.9 3.9 62 3.1 SSE 9 19 5 10 1026.0 1026.0 0.0
19/09:30pm 11.0 8.1 4.5 64 2.9 SSE 9 15 5 8 1026.0 1026.0 0.0
19/09:00pm 11.2 7.9 4.4 63 3.0 S 11 17 6 9 1025.8 1025.8 0.0
19/08:30pm 11.3 8.5 5.2 66 2.8 SSE 9 13 5 7 1025.7 1025.7 0.0
19/08:00pm 11.4 8.6 5.1 65 2.9 SSE 9 17 5 9 1025.6 1025.6 0.0

Latest Capital City Observations: Canberra | Sydney | Melbourne | Brisbane | Adelaide | Perth | Hobart | Darwin

Other Formats:

Comma delimited format used in spreadsheet applications
http://www.bom.gov.au/fwo/IDV60901/IDV60901.95936.axf

JavaScript Object Notation format (JSON) in row-major order
http://www.bom.gov.au/fwo/IDV60901/IDV60901.95936.json